Freelance — WSP9410 — position and weather

sailwx.info

Track history (hours):
 
Tides and Currents Weather Stations Pressure Air Temp Water Temp Dewpoint Dewpoint Depression Visibility Wind Speed Wind Dir Waves Ship Positions

Freelance

Owner: BROCKMAN, DONALD C, BALBOA, CA. More information available from US FCC via Universal Licensing System and Coast Guard Vessel Documentation Center.

Last reported at 2018-Feb-18 22:35 UTC. Time now 2018-Feb-20 06:17 UTC.
Position N 33°39' W 118°06'.

Length 25 m.

Type: Passenger vessel. MMSI: 366977380.

Date/timePositionNaut miles runAvg speedWind from/ knotsBaromVisibWave heightAir tempDewpointWater temp
2018-Feb-18 22:35N 33°39' W 118°06'0 0.5
2018-Feb-18 22:29N 33°39' W 118°06'0 0.0
2018-Feb-18 21:58N 33°39' W 118°06'0 0.0
2018-Feb-18 21:28N 33°39' W 118°06'0 0.8
2018-Feb-18 21:00N 33°39' W 118°06'0 0.1
2018-Feb-18 20:30N 33°39' W 118°06'2 4.0
2018-Feb-18 20:00N 33°37' W 118°07'3 6.0
2018-Feb-18 19:29N 33°34' W 118°08'0 0.3
2018-Feb-18 18:56N 33°34' W 118°09'0 0.0
2018-Feb-18 18:27N 33°34' W 118°09'0 0.0
2018-Feb-18 16:39N 33°34' W 118°09'0 0.8
2018-Feb-18 16:30N 33°34' W 118°08'11 1.3
2018-Feb-18 07:33N 33°36' W 117°55'010.6
2018-Feb-18 07:30N 33°36' W 117°55'3 5.0
2018-Feb-18 06:59N 33°37' W 117°58'0 0.0
2018-Feb-18 06:30N 33°37' W 117°58'0 0.1
2018-Feb-18 05:10N 33°37' W 117°58'0 1.6
2018-Feb-18 04:55N 33°37' W 117°58'5 3.0
2018-Feb-18 03:17N 33°35' W 117°53'6 2.8
2018-Feb-18 01:14N 33°33' W 117°59'210.5
2018-Feb-18 01:00N 33°32' W 118°02'510.5
2018-Feb-18 00:30N 33°30' W 118°08'510.4
2018-Feb-17 23:58N 33°28' W 118°14'9 5.5
2018-Feb-17 22:15N 33°25' W 118°25'4 3.1
2018-Feb-17 20:49N 33°27' W 118°29'0 0.1
2018-Feb-17 20:22N 33°27' W 118°29'2 4.2
2018-Feb-17 19:56N 33°28' W 118°27'611.1
2018-Feb-17 19:22N 33°30' W 118°20'510.9
2018-Feb-17 18:56N 33°32' W 118°15'510.5
2018-Feb-17 18:29N 33°34' W 118°10'1 2.7
2018-Feb-17 18:00N 33°34' W 118°09'0 0.0
2018-Feb-17 17:28N 33°34' W 118°09'0 0.0
2018-Feb-17 17:00N 33°34' W 118°09'0 0.0
2018-Feb-17 16:29N 33°34' W 118°09'1 1.2
2018-Feb-17 16:00N 33°34' W 118°08'510.7
2018-Feb-17 15:29N 33°35' W 118°01'710.6
2018-Feb-17 14:49N 33°35' W 117°53'1 0.1
2018-Feb-17 01:48N 33°34' W 117°54'310.1
2018-Feb-17 01:30N 33°32' W 117°56'510.3
2018-Feb-17 01:00N 33°29' W 118°01'  
2018-Feb-12 00:25N 33°37' W 117°58'7 3.8
2018-Feb-11 22:33N 33°39' W 118°06'0 6.4
2018-Feb-11 22:30N 33°39' W 118°06'0 0.2
2018-Feb-11 22:00N 33°39' W 118°06'0 0.6
2018-Feb-11 21:30N 33°39' W 118°06'1 2.2
2018-Feb-11 21:00N 33°38' W 118°06'4 5.0
2018-Feb-11 20:12N 33°35' W 118°09'1 5.1
2018-Feb-11 19:59N 33°36' W 118°09'1 0.8
2018-Feb-11 18:21N 33°34' W 118°09'0 0.0
2018-Feb-11 17:59N 33°34' W 118°09'0 0.1
2018-Feb-11 17:24N 33°34' W 118°09'0 0.0
2018-Feb-11 16:23N 33°34' W 118°09'0 1.1
2018-Feb-11 15:59N 33°34' W 118°08'5 0.3
2018-Feb-10 23:40N 33°39' W 118°06'0 0.0
2018-Feb-10 23:28N 33°39' W 118°06'0 0.7
2018-Feb-10 23:00N 33°40' W 118°06'1 1.5
2018-Feb-10 22:29N 33°39' W 118°06'0 0.0
2018-Feb-10 21:58N 33°39' W 118°06'0 0.0
2018-Feb-10 21:26N 33°39' W 118°06'0 0.1
2018-Feb-10 21:00N 33°39' W 118°06'7 4.2
2018-Feb-10 19:23N 33°35' W 118°13'6 1.6
2018-Feb-10 15:49N 33°34' W 118°06'7 0.8
2018-Feb-10 07:02N 33°37' W 117°58'0 0.3
2018-Feb-10 06:55N 33°37' W 117°58'0 0.0
2018-Feb-10 04:12N 33°37' W 117°58'0 0.0
2018-Feb-10 04:00N 33°37' W 117°58'4 2.2
2018-Feb-10 02:24N 33°36' W 117°54'1 2.5
2018-Feb-10 01:49N 33°35' W 117°53'310.5
2018-Feb-10 01:30N 33°33' W 117°56'710.7
2018-Feb-10 00:49N 33°28' W 118°03'310.7
2018-Feb-10 00:30N 33°26' W 118°06'810.7
2018-Feb-09 23:47N 33°22' W 118°13'310.4
2018-Feb-09 23:30N 33°20' W 118°16'3 5.6
2018-Feb-09 22:58N 33°18' W 118°19'0 0.1
2018-Feb-09 22:46N 33°18' W 118°19'2 0.9
2018-Feb-09 20:30N 33°20' W 118°18'  
Track history (hours):
 
Tides and Currents Weather Stations Pressure Air Temp Water Temp Dewpoint Dewpoint Depression Visibility Wind Speed Wind Dir Waves Ship Positions

Freelance

Owner: BROCKMAN, DONALD C, BALBOA, CA. More information available from US FCC via Universal Licensing System and Coast Guard Vessel Documentation Center.

Last reported at 2018-Feb-18 22:35 UTC. Time now 2018-Feb-20 06:17 UTC.
Position N 33°39' W 118°06'.

Length 25 m.

Type: Passenger vessel. MMSI: 366977380.

Date/timePositionNaut miles runAvg speedWind from/ knotsBaromVisibWave heightAir tempDewpointWater temp
2018-Feb-18 22:35N 33°39' W 118°06'0 0.5
2018-Feb-18 22:29N 33°39' W 118°06'0 0.0
2018-Feb-18 21:58N 33°39' W 118°06'0 0.0
2018-Feb-18 21:28N 33°39' W 118°06'0 0.8
2018-Feb-18 21:00N 33°39' W 118°06'0 0.1
2018-Feb-18 20:30N 33°39' W 118°06'2 4.0
2018-Feb-18 20:00N 33°37' W 118°07'3 6.0
2018-Feb-18 19:29N 33°34' W 118°08'0 0.3
2018-Feb-18 18:56N 33°34' W 118°09'0 0.0
2018-Feb-18 18:27N 33°34' W 118°09'0 0.0
2018-Feb-18 16:39N 33°34' W 118°09'0 0.8
2018-Feb-18 16:30N 33°34' W 118°08'11 1.3
2018-Feb-18 07:33N 33°36' W 117°55'010.6
2018-Feb-18 07:30N 33°36' W 117°55'3 5.0
2018-Feb-18 06:59N 33°37' W 117°58'0 0.0
2018-Feb-18 06:30N 33°37' W 117°58'0 0.1
2018-Feb-18 05:10N 33°37' W 117°58'0 1.6
2018-Feb-18 04:55N 33°37' W 117°58'5 3.0
2018-Feb-18 03:17N 33°35' W 117°53'6 2.8
2018-Feb-18 01:14N 33°33' W 117°59'210.5
2018-Feb-18 01:00N 33°32' W 118°02'510.5
2018-Feb-18 00:30N 33°30' W 118°08'510.4
2018-Feb-17 23:58N 33°28' W 118°14'9 5.5
2018-Feb-17 22:15N 33°25' W 118°25'4 3.1
2018-Feb-17 20:49N 33°27' W 118°29'0 0.1
2018-Feb-17 20:22N 33°27' W 118°29'2 4.2
2018-Feb-17 19:56N 33°28' W 118°27'611.1
2018-Feb-17 19:22N 33°30' W 118°20'510.9
2018-Feb-17 18:56N 33°32' W 118°15'510.5
2018-Feb-17 18:29N 33°34' W 118°10'1 2.7
2018-Feb-17 18:00N 33°34' W 118°09'0 0.0
2018-Feb-17 17:28N 33°34' W 118°09'0 0.0
2018-Feb-17 17:00N 33°34' W 118°09'0 0.0
2018-Feb-17 16:29N 33°34' W 118°09'1 1.2
2018-Feb-17 16:00N 33°34' W 118°08'510.7
2018-Feb-17 15:29N 33°35' W 118°01'710.6
2018-Feb-17 14:49N 33°35' W 117°53'1 0.1
2018-Feb-17 01:48N 33°34' W 117°54'310.1
2018-Feb-17 01:30N 33°32' W 117°56'510.3
2018-Feb-17 01:00N 33°29' W 118°01'  
2018-Feb-12 00:25N 33°37' W 117°58'7 3.8
2018-Feb-11 22:33N 33°39' W 118°06'0 6.4
2018-Feb-11 22:30N 33°39' W 118°06'0 0.2
2018-Feb-11 22:00N 33°39' W 118°06'0 0.6
2018-Feb-11 21:30N 33°39' W 118°06'1 2.2
2018-Feb-11 21:00N 33°38' W 118°06'4 5.0
2018-Feb-11 20:12N 33°35' W 118°09'1 5.1
2018-Feb-11 19:59N 33°36' W 118°09'1 0.8
2018-Feb-11 18:21N 33°34' W 118°09'0 0.0
2018-Feb-11 17:59N 33°34' W 118°09'0 0.1
2018-Feb-11 17:24N 33°34' W 118°09'0 0.0
2018-Feb-11 16:23N 33°34' W 118°09'0 1.1
2018-Feb-11 15:59N 33°34' W 118°08'5 0.3
2018-Feb-10 23:40N 33°39' W 118°06'0 0.0
2018-Feb-10 23:28N 33°39' W 118°06'0 0.7
2018-Feb-10 23:00N 33°40' W 118°06'1 1.5
2018-Feb-10 22:29N 33°39' W 118°06'0 0.0
2018-Feb-10 21:58N 33°39' W 118°06'0 0.0
2018-Feb-10 21:26N 33°39' W 118°06'0 0.1
2018-Feb-10 21:00N 33°39' W 118°06'7 4.2
2018-Feb-10 19:23N 33°35' W 118°13'6 1.6
2018-Feb-10 15:49N 33°34' W 118°06'7 0.8
2018-Feb-10 07:02N 33°37' W 117°58'0 0.3
2018-Feb-10 06:55N 33°37' W 117°58'0 0.0
2018-Feb-10 04:12N 33°37' W 117°58'0 0.0
2018-Feb-10 04:00N 33°37' W 117°58'4 2.2
2018-Feb-10 02:24N 33°36' W 117°54'1 2.5
2018-Feb-10 01:49N 33°35' W 117°53'310.5
2018-Feb-10 01:30N 33°33' W 117°56'710.7
2018-Feb-10 00:49N 33°28' W 118°03'310.7
2018-Feb-10 00:30N 33°26' W 118°06'810.7
2018-Feb-09 23:47N 33°22' W 118°13'310.4
2018-Feb-09 23:30N 33°20' W 118°16'3 5.6
2018-Feb-09 22:58N 33°18' W 118°19'0 0.1
2018-Feb-09 22:46N 33°18' W 118°19'2 0.9
2018-Feb-09 20:30N 33°20' W 118°18'  

Dump ship's entire track history